createdAt,value
2018-07-10T00:09:22.774Z,2
2018-07-10T00:29:05.835Z,2
2018-07-10T00:39:24.579Z,2
2018-07-10T00:49:48.673Z,2
2018-07-10T00:59:46.974Z,2
2018-07-10T01:19:16.878Z,2
2018-07-10T01:29:22.410Z,3
2018-07-10T01:39:07.765Z,3
2018-07-10T01:49:27.426Z,3
2018-07-10T01:59:23.706Z,3
2018-07-10T02:09:05.788Z,3
2018-07-10T02:19:19.950Z,3
2018-07-10T02:29:11.843Z,2
2018-07-10T02:39:18.557Z,2
2018-07-10T02:49:55.051Z,2
2018-07-10T02:59:09.351Z,2
2018-07-10T03:09:12.687Z,3
2018-07-10T03:19:24.979Z,2
2018-07-10T03:29:06.692Z,3
2018-07-10T03:39:23.086Z,3
2018-07-10T03:49:06.694Z,2
2018-07-10T03:59:23.132Z,2
2018-07-10T04:09:24.608Z,2
2018-07-10T04:19:17.805Z,2
2018-07-10T04:29:09.514Z,2
2018-07-10T04:39:13.681Z,2
2018-07-10T04:49:06.848Z,2
2018-07-10T04:59:14.246Z,2
2018-07-10T05:09:09.583Z,2
2018-07-10T05:19:16.023Z,3
2018-07-10T05:29:06.985Z,2
2018-07-10T05:39:13.960Z,2
2018-07-10T05:49:15.109Z,2
2018-07-10T05:59:05.852Z,2
2018-07-10T06:09:09.563Z,3
2018-07-10T06:25:34.649Z,2
2018-07-10T06:29:05.806Z,2
2018-07-10T06:39:09.708Z,2
2018-07-10T06:49:05.866Z,2
2018-07-10T06:59:05.863Z,3
2018-07-10T07:09:05.850Z,2
2018-07-10T07:19:07.827Z,2
2018-07-10T07:29:51.232Z,4
2018-07-10T07:39:06.624Z,3
2018-07-10T07:49:06.234Z,3
2018-07-10T07:59:06.041Z,4
2018-07-10T08:09:08.944Z,3
2018-07-10T08:19:07.184Z,3
2018-07-10T08:29:06.038Z,3
2018-07-10T08:39:06.728Z,3
2018-07-10T08:49:06.946Z,4
2018-07-10T08:59:05.933Z,4
2018-07-10T09:09:06.181Z,4
2018-07-10T09:19:06.032Z,4
2018-07-10T09:29:05.997Z,4
2018-07-10T09:39:05.986Z,4
2018-07-10T09:49:06.093Z,5
2018-07-10T09:59:07.068Z,4
2018-07-10T10:09:06.221Z,4
2018-07-10T10:19:06.079Z,4
2018-07-10T10:29:06.023Z,4
2018-07-10T10:39:06.076Z,6
2018-07-10T10:49:06.106Z,5
2018-07-10T10:59:06.075Z,5
2018-07-10T11:09:06.145Z,5
2018-07-10T11:19:06.097Z,4
2018-07-10T11:29:06.030Z,6
2018-07-10T11:39:06.179Z,6
2018-07-10T11:49:06.152Z,6
2018-07-10T11:59:06.062Z,7
2018-07-10T12:09:06.097Z,7
2018-07-10T12:19:06.291Z,7
2018-07-10T12:29:06.228Z,6
2018-07-10T12:39:06.092Z,6
2018-07-10T12:49:06.095Z,6
2018-07-10T12:59:06.104Z,7
2018-07-10T13:09:06.069Z,8
2018-07-10T13:19:06.119Z,8
2018-07-10T13:29:06.987Z,7
2018-07-10T13:39:06.474Z,8
2018-07-10T13:49:06.192Z,7
2018-07-10T13:59:06.111Z,7
2018-07-10T14:09:06.101Z,8
2018-07-10T14:19:06.261Z,8
2018-07-10T14:29:06.367Z,7
2018-07-10T14:39:06.241Z,6
2018-07-10T14:49:06.093Z,9
2018-07-10T14:59:06.137Z,7
2018-07-10T15:09:06.271Z,8
2018-07-10T15:29:06.109Z,6
2018-07-10T15:39:06.224Z,6
2018-07-10T15:59:06.100Z,5
2018-07-10T16:09:06.089Z,5
2018-07-10T16:19:06.141Z,5
2018-07-10T16:29:06.093Z,5
2018-07-10T16:39:06.088Z,4
2018-07-10T16:59:55.104Z,4
2018-07-10T17:00:35.723Z,3
2018-07-10T17:10:35.640Z,3
2018-07-10T17:30:35.664Z,3
2018-07-10T17:40:35.583Z,3
2018-07-10T17:50:35.766Z,3
2018-07-10T18:00:35.712Z,2
2018-07-10T18:10:48.267Z,1
2018-07-10T18:20:38.044Z,1
2018-07-10T18:30:35.683Z,1
2018-07-10T18:40:35.768Z,1
2018-07-10T18:50:35.756Z,1
2018-07-10T19:00:36.795Z,1
2018-07-10T19:10:36.700Z,1
2018-07-10T19:20:35.769Z,2
2018-07-10T19:30:37.106Z,2
2018-07-10T19:40:35.819Z,2
2018-07-10T19:50:35.830Z,1
2018-07-10T20:00:35.765Z,3
2018-07-10T20:10:35.779Z,1
2018-07-10T20:20:35.784Z,1
2018-07-10T20:30:36.423Z,2
2018-07-10T20:40:35.865Z,1
2018-07-10T20:50:36.684Z,2
2018-07-10T21:00:35.924Z,1
2018-07-10T21:10:36.074Z,2
2018-07-10T21:20:36.559Z,2
2018-07-10T21:30:36.020Z,1
2018-07-10T21:40:36.587Z,1
2018-07-10T21:50:35.990Z,1
2018-07-10T22:00:36.036Z,2
2018-07-10T22:10:36.084Z,2
2018-07-10T22:20:35.942Z,2
2018-07-10T22:30:35.980Z,3
2018-07-10T22:40:35.977Z,3
2018-07-10T22:50:35.943Z,3
2018-07-10T23:00:35.952Z,4
2018-07-10T23:10:35.923Z,4
2018-07-10T23:20:35.983Z,4
2018-07-10T23:30:35.879Z,4
2018-07-10T23:40:35.875Z,4
2018-07-10T23:50:35.979Z,4
